Spring Valley, Arizona
Current Conditions -  °F | °C
As of 8:55 PM on Saturday 22 Nov 2014 (Local Time) from KPAN Reporting Station
Clear Clear  
Wind Chill: 40°   Ceiling: Unl
Heat Index: 43°   Visibility: 10mi
Dew Point: 23°   Wind: 5mph
Humidity: 46%   Direction: 50°NE
Pressure: 30.05"   Gusts: NA
Location:  34.2564°N, 111.978°W
Report Text: KPAN 230355Z AUTO 05004KT 10SM CLR 06/M05 A3005 RMK AO2
Loading
Personal Weather Stations






























Interactive Weather Map New forecast layout! Learn more

10-Day Weather Forecast

Advertisements
Track Severe Weather on mobile